createdAt,value
2023-02-27T00:02:03.739Z,97.89
2023-02-27T00:04:30.446Z,97.70
2023-02-27T00:06:57.054Z,98.42
2023-02-27T00:09:23.928Z,98.70
2023-02-27T00:11:50.501Z,98.94
2023-02-27T00:14:17.024Z,98.95
2023-02-27T00:16:44.925Z,99.82
2023-02-27T00:19:11.481Z,100.00
2023-02-27T00:21:38.184Z,100.00
2023-02-27T00:24:05.922Z,100.00
2023-02-27T00:26:32.548Z,100.00
2023-02-27T00:28:59.089Z,100.00
2023-02-27T00:31:25.949Z,100.00
2023-02-27T00:33:54.065Z,100.00
2023-02-27T00:36:20.741Z,100.00
2023-02-27T00:38:47.394Z,100.00
2023-02-27T00:41:14.472Z,100.00
2023-02-27T00:43:40.985Z,100.00
2023-02-27T00:46:07.723Z,100.00
2023-02-27T00:48:34.266Z,100.00
2023-02-27T00:51:02.655Z,100.00
2023-02-27T00:53:29.220Z,100.00
2023-02-27T00:55:55.854Z,100.00
2023-02-27T00:58:22.429Z,100.00
2023-02-27T01:00:49.136Z,100.00
2023-02-27T01:03:15.736Z,100.00
2023-02-27T01:05:42.277Z,100.00
2023-02-27T01:08:10.254Z,100.00
2023-02-27T01:10:37.068Z,100.00
2023-02-27T01:13:03.664Z,100.00
2023-02-27T01:15:30.220Z,100.00
2023-02-27T01:17:56.831Z,100.00
2023-02-27T01:20:23.420Z,100.00
2023-02-27T01:22:49.953Z,100.00
2023-02-27T01:25:18.157Z,100.00
2023-02-27T01:27:44.868Z,100.00
2023-02-27T01:30:12.026Z,100.00
2023-02-27T01:32:38.810Z,100.00
2023-02-27T01:35:06.389Z,100.00
2023-02-27T01:37:32.923Z,100.00
2023-02-27T01:39:59.473Z,100.00
2023-02-27T01:42:28.837Z,100.00
2023-02-27T01:45:18.659Z,100.00
2023-02-27T01:47:48.373Z,100.00
2023-02-27T01:50:17.690Z,100.00
2023-02-27T01:52:45.872Z,100.00
2023-02-27T01:55:14.743Z,100.00
2023-02-27T01:57:45.989Z,100.00
2023-02-27T02:00:14.034Z,100.00
2023-02-27T02:02:44.281Z,100.00
2023-02-27T02:05:10.953Z,100.00
2023-02-27T02:07:39.608Z,100.00
2023-02-27T02:10:07.101Z,100.00
2023-02-27T02:12:35.643Z,100.00
2023-02-27T02:15:04.401Z,100.00
2023-02-27T02:17:36.958Z,100.00
2023-02-27T02:20:38.748Z,100.00
2023-02-27T02:23:29.621Z,100.00
2023-02-27T02:26:33.589Z,100.00
2023-02-27T02:29:43.606Z,100.00
2023-02-27T02:32:41.716Z,100.00
2023-02-27T02:35:38.927Z,100.00
2023-02-27T02:38:43.501Z,100.00
2023-02-27T02:41:18.682Z,100.00
2023-02-27T02:43:54.582Z,100.00
2023-02-27T02:46:30.734Z,100.00
2023-02-27T02:49:03.040Z,100.00
2023-02-27T02:51:35.434Z,100.00
2023-02-27T02:54:09.522Z,100.00
2023-02-27T02:56:38.969Z,100.00
2023-02-27T02:59:12.929Z,100.00
2023-02-27T03:01:44.019Z,100.00
2023-02-27T03:04:14.380Z,100.00
2023-02-27T03:06:45.993Z,100.00
2023-02-27T03:09:18.820Z,100.00
2023-02-27T03:11:49.056Z,100.00
2023-02-27T03:14:24.598Z,100.00
2023-02-27T03:16:54.372Z,100.00
2023-02-27T03:19:24.935Z,100.00
2023-02-27T03:21:56.255Z,100.00
2023-02-27T03:24:28.298Z,100.00
2023-02-27T03:26:58.347Z,100.00
2023-02-27T03:29:35.927Z,100.00
2023-02-27T03:32:08.294Z,100.00
2023-02-27T03:34:39.469Z,100.00
2023-02-27T03:37:20.168Z,100.00
2023-02-27T03:39:50.496Z,100.00
2023-02-27T03:42:26.340Z,100.00
2023-02-27T03:44:59.141Z,100.00
2023-02-27T03:47:25.959Z,100.00
2023-02-27T03:49:52.815Z,100.00
2023-02-27T03:52:20.437Z,100.00
2023-02-27T03:54:53.898Z,100.00
2023-02-27T03:57:20.563Z,100.00
2023-02-27T03:59:47.341Z,100.00
2023-02-27T04:02:14.081Z,100.00
2023-02-27T04:04:40.682Z,100.00
2023-02-27T04:07:15.111Z,100.00
2023-02-27T04:10:00.666Z,100.00
2023-02-27T04:12:45.522Z,100.00
2023-02-27T04:15:22.448Z,100.00
2023-02-27T04:17:56.140Z,100.00
2023-02-27T04:20:43.845Z,100.00
2023-02-27T04:23:15.994Z,100.00
2023-02-27T04:25:54.972Z,100.00
2023-02-27T04:28:27.301Z,100.00
2023-02-27T04:31:05.484Z,100.00
2023-02-27T04:33:42.983Z,100.00
2023-02-27T04:36:14.177Z,100.00
2023-02-27T04:38:47.460Z,100.00
2023-02-27T04:41:21.661Z,100.00
2023-02-27T04:43:50.026Z,100.00
2023-02-27T04:46:20.897Z,100.00
2023-02-27T04:48:54.044Z,100.00
2023-02-27T04:51:25.747Z,100.00
2023-02-27T04:53:56.346Z,100.00
2023-02-27T04:56:29.345Z,100.00
2023-02-27T04:59:00.262Z,100.00
2023-02-27T05:01:34.564Z,100.00
2023-02-27T05:04:03.045Z,100.00
2023-02-27T05:06:34.561Z,100.00
2023-02-27T05:09:10.295Z,100.00
2023-02-27T05:11:44.255Z,100.00
2023-02-27T05:14:16.325Z,100.00
2023-02-27T05:16:47.810Z,100.00
2023-02-27T05:19:14.586Z,100.00
2023-02-27T05:21:49.117Z,100.00
2023-02-27T05:24:28.835Z,100.00
2023-02-27T05:27:12.264Z,100.00
2023-02-27T05:29:45.033Z,100.00
2023-02-27T05:32:20.865Z,100.00
2023-02-27T05:34:52.662Z,100.00
2023-02-27T05:37:24.931Z,100.00
2023-02-27T05:39:52.846Z,100.00
2023-02-27T05:42:26.880Z,100.00
2023-02-27T05:44:59.255Z,100.00
2023-02-27T05:47:31.041Z,100.00
2023-02-27T05:50:02.823Z,100.00
2023-02-27T05:52:31.829Z,100.00
2023-02-27T05:55:03.403Z,100.00
2023-02-27T05:57:38.917Z,100.00
2023-02-27T06:00:10.398Z,100.00
2023-02-27T06:02:37.004Z,100.00
2023-02-27T06:05:04.388Z,100.00
2023-02-27T06:07:31.901Z,100.00
2023-02-27T06:09:58.655Z,100.00
2023-02-27T06:12:25.422Z,100.00
2023-02-27T06:14:53.402Z,100.00
2023-02-27T06:17:20.007Z,100.00
2023-02-27T06:19:46.684Z,100.00
2023-02-27T06:22:13.198Z,100.00
2023-02-27T06:24:39.756Z,100.00
2023-02-27T06:27:06.326Z,100.00
2023-02-27T06:29:32.886Z,100.00
2023-02-27T06:32:00.836Z,100.00
2023-02-27T06:34:27.617Z,100.00
2023-02-27T06:36:54.228Z,100.00
2023-02-27T06:39:21.013Z,100.00
2023-02-27T06:41:47.608Z,100.00
2023-02-27T06:44:14.147Z,100.00
2023-02-27T06:46:40.724Z,100.00
2023-02-27T06:49:08.673Z,100.00
2023-02-27T06:51:35.236Z,100.00
2023-02-27T06:54:01.802Z,100.00
2023-02-27T06:56:28.618Z,100.00
2023-02-27T06:58:55.361Z,100.00
2023-02-27T07:01:21.996Z,100.00
2023-02-27T07:03:48.587Z,100.00
2023-02-27T07:06:16.580Z,100.00
2023-02-27T07:09:02.158Z,100.00
2023-02-27T07:11:29.634Z,100.00
2023-02-27T07:13:56.619Z,100.00
2023-02-27T07:16:23.320Z,100.00
2023-02-27T07:18:49.849Z,100.00
2023-02-27T07:21:17.782Z,100.00
2023-02-27T07:23:44.546Z,100.00
2023-02-27T07:26:11.135Z,100.00
2023-02-27T07:28:37.840Z,100.00
2023-02-27T07:31:04.850Z,100.00
2023-02-27T07:33:31.648Z,100.00
2023-02-27T07:35:58.220Z,100.00
2023-02-27T07:38:26.190Z,100.00
2023-02-27T07:40:52.946Z,100.00
2023-02-27T07:43:19.490Z,100.00
2023-02-27T07:45:46.120Z,100.00
2023-02-27T07:48:12.772Z,100.00
2023-02-27T07:50:39.289Z,100.00
2023-02-27T07:53:05.888Z,100.00
2023-02-27T07:55:33.819Z,100.00
2023-02-27T07:58:00.362Z,100.00
2023-02-27T08:00:26.972Z,100.00
2023-02-27T08:02:53.636Z,100.00
2023-02-27T08:05:20.232Z,100.00
2023-02-27T08:07:46.913Z,100.00
2023-02-27T08:10:13.625Z,100.00
2023-02-27T08:12:41.641Z,100.00
2023-02-27T08:15:09.591Z,100.00
2023-02-27T08:17:36.144Z,100.00
2023-02-27T08:20:02.842Z,100.00
2023-02-27T08:22:29.672Z,99.32
2023-02-27T08:24:56.261Z,99.27
2023-02-27T08:27:22.804Z,99.08
2023-02-27T08:29:50.687Z,98.57
2023-02-27T08:32:17.383Z,96.82
2023-02-27T08:34:44.048Z,97.07
2023-02-27T08:37:10.781Z,94.66
2023-02-27T08:39:37.296Z,95.29
2023-02-27T08:42:04.017Z,94.60
2023-02-27T08:44:30.835Z,94.04
2023-02-27T08:46:58.781Z,94.39
2023-02-27T08:49:25.415Z,92.30
2023-02-27T08:51:52.439Z,92.26
2023-02-27T08:54:20.047Z,91.95
2023-02-27T08:56:47.990Z,90.79
2023-02-27T08:59:14.890Z,89.47
2023-02-27T09:01:41.931Z,89.60
2023-02-27T09:04:10.283Z,86.81
2023-02-27T09:06:37.370Z,86.87
2023-02-27T09:09:04.880Z,84.12
2023-02-27T09:11:34.425Z,85.12
2023-02-27T09:14:01.225Z,85.66
2023-02-27T09:16:28.335Z,82.91
2023-02-27T09:18:55.409Z,84.55
2023-02-27T09:21:23.550Z,83.11
2023-02-27T09:23:50.227Z,82.80
2023-02-27T09:26:16.865Z,82.62
2023-02-27T09:28:43.756Z,83.07
2023-02-27T09:31:10.476Z,81.38
2023-02-27T09:33:38.143Z,79.07
2023-02-27T09:36:05.299Z,80.43
2023-02-27T09:38:34.119Z,78.90
2023-02-27T09:41:00.863Z,79.47
2023-02-27T09:43:32.689Z,79.59
2023-02-27T09:46:01.145Z,78.97
2023-02-27T09:48:30.594Z,78.57
2023-02-27T09:50:57.932Z,75.97
2023-02-27T09:53:27.704Z,76.59
2023-02-27T09:55:59.790Z,76.63
2023-02-27T09:58:37.939Z,75.24
2023-02-27T10:01:09.944Z,75.27
2023-02-27T10:04:13.294Z,76.32
2023-02-27T10:06:44.193Z,73.85
2023-02-27T10:09:28.891Z,76.42
2023-02-27T10:12:09.777Z,75.58
2023-02-27T10:14:42.291Z,74.24
2023-02-27T10:17:15.543Z,73.61
2023-02-27T10:19:45.912Z,70.96
2023-02-27T10:22:17.075Z,71.54
2023-02-27T10:24:50.251Z,72.74
2023-02-27T10:27:20.797Z,72.87
2023-02-27T10:29:47.519Z,74.60
2023-02-27T10:32:19.219Z,75.08
2023-02-27T10:34:50.294Z,74.55
2023-02-27T10:37:20.771Z,73.65
2023-02-27T10:39:50.314Z,73.15
2023-02-27T10:42:18.520Z,74.59
2023-02-27T10:44:45.058Z,74.12
2023-02-27T10:47:15.209Z,72.70
2023-02-27T10:49:43.682Z,71.28
2023-02-27T10:52:12.585Z,72.28
2023-02-27T10:54:40.743Z,73.40
2023-02-27T10:57:21.646Z,74.00
2023-02-27T10:59:53.542Z,70.17
2023-02-27T11:02:22.832Z,68.28
2023-02-27T11:04:52.575Z,66.30
2023-02-27T11:07:28.853Z,65.52
2023-02-27T11:10:01.291Z,65.80
2023-02-27T11:12:31.433Z,65.30
2023-02-27T11:14:59.742Z,63.70
2023-02-27T11:17:29.241Z,60.92
2023-02-27T11:19:56.299Z,57.49
2023-02-27T11:22:25.098Z,55.78
2023-02-27T11:25:09.343Z,53.54
2023-02-27T11:27:37.431Z,51.69
2023-02-27T11:30:06.287Z,52.83
2023-02-27T11:32:41.460Z,50.93
2023-02-27T11:35:22.933Z,49.34
2023-02-27T11:37:51.319Z,50.77
2023-02-27T11:40:20.014Z,49.83
2023-02-27T11:42:50.698Z,49.33
2023-02-27T11:46:19.452Z,46.93
2023-02-27T11:48:20.828Z,48.71
2023-02-27T11:51:16.101Z,48.29
2023-02-27T11:54:15.080Z,45.37
2023-02-27T11:56:45.029Z,45.32
2023-02-27T11:59:27.718Z,47.79
2023-02-27T12:02:01.537Z,43.64
2023-02-27T12:04:35.258Z,46.06
2023-02-27T12:07:09.811Z,45.79
2023-02-27T12:09:42.606Z,47.53
2023-02-27T12:12:17.419Z,45.93
2023-02-27T12:14:55.123Z,46.58
2023-02-27T12:17:26.268Z,46.33
2023-02-27T12:20:06.488Z,45.53
2023-02-27T12:22:37.441Z,46.25
2023-02-27T12:25:07.405Z,47.70
2023-02-27T12:27:43.856Z,47.31
2023-02-27T12:30:19.289Z,48.96
2023-02-27T12:32:53.898Z,51.17
2023-02-27T12:35:24.308Z,53.41
2023-02-27T12:37:51.841Z,53.58
2023-02-27T12:40:20.499Z,54.47
2023-02-27T12:43:03.824Z,55.02
2023-02-27T12:46:07.528Z,53.19
2023-02-27T12:48:47.010Z,49.32
2023-02-27T12:51:29.824Z,49.86
2023-02-27T12:54:08.593Z,50.13
2023-02-27T12:56:47.021Z,50.97
2023-02-27T12:59:28.808Z,53.91
2023-02-27T13:02:05.240Z,53.88
2023-02-27T13:04:44.073Z,56.52
2023-02-27T13:07:21.437Z,55.05
2023-02-27T13:09:51.064Z,53.41
2023-02-27T13:12:26.170Z,50.00
2023-02-27T13:14:59.105Z,48.78
2023-02-27T13:17:34.190Z,47.14
2023-02-27T13:20:07.491Z,45.74
2023-02-27T13:22:41.115Z,44.54
2023-02-27T13:25:12.955Z,46.06
2023-02-27T13:27:43.839Z,47.50
2023-02-27T13:30:15.576Z,48.08
2023-02-27T13:32:49.677Z,52.22
2023-02-27T13:35:29.162Z,50.98
2023-02-27T13:37:57.710Z,53.46
2023-02-27T13:40:34.576Z,53.49
2023-02-27T13:43:04.588Z,56.08
2023-02-27T13:45:52.763Z,55.75
2023-02-27T13:48:43.387Z,54.41
2023-02-27T13:51:26.696Z,52.70
2023-02-27T13:54:08.346Z,49.67
2023-02-27T13:56:35.644Z,49.53
2023-02-27T13:59:12.055Z,45.97
2023-02-27T14:01:39.210Z,48.42
2023-02-27T14:04:08.045Z,50.83
2023-02-27T14:06:43.950Z,52.40
2023-02-27T14:09:15.251Z,53.40
2023-02-27T14:11:53.874Z,51.49
2023-02-27T14:14:50.621Z,52.36
2023-02-27T14:17:40.509Z,51.54
2023-02-27T14:20:14.110Z,53.41
2023-02-27T14:22:57.723Z,53.02
2023-02-27T14:25:30.320Z,53.47
2023-02-27T14:27:58.587Z,53.35
2023-02-27T14:30:31.988Z,54.25
2023-02-27T14:33:03.057Z,55.42
2023-02-27T14:35:32.492Z,56.69
2023-02-27T14:38:08.017Z,55.60
2023-02-27T14:40:40.081Z,54.75
2023-02-27T14:43:17.010Z,53.91
2023-02-27T14:45:43.655Z,56.55
2023-02-27T14:48:10.927Z,54.38
2023-02-27T14:50:40.502Z,56.76
2023-02-27T14:53:21.461Z,56.56
2023-02-27T14:55:53.704Z,57.82
2023-02-27T14:58:22.176Z,57.80
2023-02-27T15:00:56.805Z,57.59
2023-02-27T15:03:26.113Z,57.91
2023-02-27T15:05:59.040Z,59.42
2023-02-27T15:08:29.004Z,58.32
2023-02-27T15:10:57.478Z,62.72
2023-02-27T15:13:28.359Z,59.92
2023-02-27T15:16:34.447Z,60.51
2023-02-27T15:19:13.333Z,62.45
2023-02-27T15:21:44.812Z,61.41
2023-02-27T15:24:22.470Z,61.73
2023-02-27T15:26:53.115Z,61.45
2023-02-27T15:29:23.493Z,61.62
2023-02-27T15:31:51.541Z,63.31
2023-02-27T15:34:18.789Z,63.39
2023-02-27T15:36:51.117Z,62.57
2023-02-27T15:39:20.212Z,63.37
2023-02-27T15:41:49.229Z,63.14
2023-02-27T15:44:17.391Z,64.44
2023-02-27T15:46:45.799Z,64.67
2023-02-27T15:49:17.683Z,65.08
2023-02-27T15:51:48.821Z,64.83
2023-02-27T15:54:15.553Z,63.88
2023-02-27T15:56:42.763Z,64.34
2023-02-27T15:59:15.880Z,65.18
2023-02-27T16:01:42.769Z,65.58
2023-02-27T16:04:20.491Z,65.50
2023-02-27T16:06:53.182Z,65.10
2023-02-27T16:09:23.183Z,64.26
2023-02-27T16:11:50.034Z,65.11
2023-02-27T16:14:36.826Z,65.40
2023-02-27T16:17:03.649Z,66.32
2023-02-27T16:19:31.801Z,65.46
2023-02-27T16:22:13.784Z,64.81
2023-02-27T16:24:40.900Z,65.43
2023-02-27T16:27:16.487Z,66.59
2023-02-27T16:29:45.129Z,67.21
2023-02-27T16:32:22.718Z,67.70
2023-02-27T16:34:50.042Z,69.16
2023-02-27T16:37:21.149Z,69.76
2023-02-27T16:39:49.594Z,70.41
2023-02-27T16:42:16.174Z,71.11
2023-02-27T16:44:43.122Z,71.38
2023-02-27T16:47:09.844Z,71.09
2023-02-27T16:49:36.440Z,71.69
2023-02-27T16:52:03.006Z,71.88
2023-02-27T16:54:30.855Z,73.47
2023-02-27T16:56:57.486Z,74.39
2023-02-27T16:59:29.671Z,75.85
2023-02-27T17:01:57.474Z,76.75
2023-02-27T17:04:26.176Z,78.55
2023-02-27T17:06:53.800Z,80.00
2023-02-27T17:09:20.478Z,81.86
2023-02-27T17:11:48.658Z,83.61
2023-02-27T17:14:15.527Z,85.27
2023-02-27T17:16:42.185Z,87.80
2023-02-27T17:19:08.773Z,89.92
2023-02-27T17:21:35.303Z,91.59
2023-02-27T17:24:02.585Z,92.36
2023-02-27T17:26:29.508Z,93.58
2023-02-27T17:28:58.028Z,95.20
2023-02-27T17:31:24.951Z,96.23
2023-02-27T17:33:52.297Z,97.30
2023-02-27T17:36:19.513Z,97.21
2023-02-27T17:38:46.128Z,97.29
2023-02-27T17:41:14.061Z,97.65
2023-02-27T17:43:40.939Z,98.49
2023-02-27T17:46:09.875Z,99.53
2023-02-27T17:48:37.071Z,99.15
2023-02-27T17:51:04.731Z,100.00
2023-02-27T17:53:32.657Z,100.00
2023-02-27T17:55:59.252Z,100.00
2023-02-27T17:58:25.803Z,100.00
2023-02-27T18:00:52.348Z,100.00
2023-02-27T18:03:20.328Z,100.00
2023-02-27T18:05:51.037Z,100.00
2023-02-27T18:08:18.025Z,100.00
2023-02-27T18:10:46.910Z,100.00
2023-02-27T18:13:13.717Z,100.00
2023-02-27T18:15:40.300Z,100.00
2023-02-27T18:18:06.898Z,100.00
2023-02-27T18:20:34.978Z,100.00
2023-02-27T18:23:01.623Z,100.00
2023-02-27T18:25:28.212Z,100.00
2023-02-27T18:27:55.244Z,100.00
2023-02-27T18:30:21.834Z,99.79
2023-02-27T18:32:48.435Z,98.20
2023-02-27T18:35:15.384Z,98.26
2023-02-27T18:37:43.313Z,97.72
2023-02-27T18:40:11.282Z,97.64
2023-02-27T18:42:37.952Z,97.52
2023-02-27T18:45:05.511Z,96.58
2023-02-27T18:47:32.323Z,95.59
2023-02-27T18:49:59.395Z,94.73
2023-02-27T18:52:26.254Z,94.39
2023-02-27T18:54:54.208Z,94.41
2023-02-27T18:57:20.915Z,94.47
2023-02-27T18:59:47.616Z,94.60
2023-02-27T19:02:15.688Z,94.43
2023-02-27T19:04:42.262Z,93.56
2023-02-27T19:07:08.849Z,93.64
2023-02-27T19:09:35.436Z,93.31
2023-02-27T19:12:03.845Z,92.98
2023-02-27T19:14:30.573Z,93.30
2023-02-27T19:16:57.467Z,93.40
2023-02-27T19:19:24.066Z,93.41
2023-02-27T19:21:50.857Z,93.47
2023-02-27T19:24:17.442Z,93.58
2023-02-27T19:26:44.014Z,93.46
2023-02-27T19:29:11.917Z,93.28
2023-02-27T19:31:38.761Z,93.54
2023-02-27T19:34:05.687Z,92.61
2023-02-27T19:36:32.373Z,92.56
2023-02-27T19:38:59.230Z,91.79
2023-02-27T19:41:25.854Z,90.99
2023-02-27T19:43:52.950Z,91.40
2023-02-27T19:46:23.529Z,90.74
2023-02-27T19:48:50.398Z,90.46
2023-02-27T19:51:17.310Z,90.06
2023-02-27T19:53:45.898Z,89.36
2023-02-27T19:56:15.482Z,88.97
2023-02-27T19:58:42.105Z,88.87
2023-02-27T20:01:08.846Z,88.84
2023-02-27T20:03:37.191Z,88.43
2023-02-27T20:06:04.222Z,88.51
2023-02-27T20:08:30.727Z,88.00
2023-02-27T20:10:58.598Z,87.69
2023-02-27T20:13:25.723Z,87.57
2023-02-27T20:15:56.511Z,87.25
2023-02-27T20:18:23.315Z,87.54
2023-02-27T20:21:00.433Z,87.59
2023-02-27T20:23:27.208Z,88.03
2023-02-27T20:25:53.752Z,87.81
2023-02-27T20:28:21.086Z,88.02
2023-02-27T20:30:47.779Z,87.31
2023-02-27T20:33:14.611Z,88.01
2023-02-27T20:35:41.330Z,87.33
2023-02-27T20:38:09.268Z,87.08
2023-02-27T20:40:35.852Z,86.53
2023-02-27T20:43:02.474Z,87.36
2023-02-27T20:45:29.577Z,87.04
2023-02-27T20:47:56.211Z,86.81
2023-02-27T20:50:22.740Z,86.99
2023-02-27T20:52:53.810Z,86.38
2023-02-27T20:55:21.837Z,86.82
2023-02-27T20:57:48.378Z,85.96
2023-02-27T21:00:15.531Z,86.21
2023-02-27T21:02:42.109Z,86.44
2023-02-27T21:05:09.278Z,86.60
2023-02-27T21:07:35.882Z,85.57
2023-02-27T21:10:02.484Z,86.00
2023-02-27T21:12:30.692Z,85.64
2023-02-27T21:14:57.305Z,86.01
2023-02-27T21:17:24.104Z,85.33
2023-02-27T21:19:50.764Z,85.79
2023-02-27T21:22:17.533Z,86.14
2023-02-27T21:24:44.119Z,86.32
2023-02-27T21:27:10.643Z,86.91
2023-02-27T21:29:38.790Z,87.34
2023-02-27T21:32:05.463Z,87.60
2023-02-27T21:34:32.076Z,88.04
2023-02-27T21:37:01.086Z,88.05
2023-02-27T21:39:27.955Z,88.59
2023-02-27T21:41:55.113Z,88.67
2023-02-27T21:44:23.247Z,88.60
2023-02-27T21:46:51.629Z,88.53
2023-02-27T21:49:21.105Z,88.69
2023-02-27T21:51:47.725Z,89.10
2023-02-27T21:54:15.610Z,89.61
2023-02-27T21:56:43.474Z,89.72
2023-02-27T21:59:10.630Z,90.16
2023-02-27T22:01:38.197Z,90.73
2023-02-27T22:04:06.840Z,90.40
2023-02-27T22:06:34.266Z,90.63
2023-02-27T22:09:03.058Z,90.83
2023-02-27T22:11:30.080Z,90.27
2023-02-27T22:13:57.220Z,89.99
2023-02-27T22:16:23.988Z,90.01
2023-02-27T22:18:50.749Z,89.49
2023-02-27T22:21:20.751Z,89.67
2023-02-27T22:23:47.490Z,90.06
2023-02-27T22:26:17.096Z,89.90
2023-02-27T22:28:43.597Z,90.55
2023-02-27T22:31:11.990Z,90.22
2023-02-27T22:33:39.972Z,89.80
2023-02-27T22:36:08.285Z,90.13
2023-02-27T22:38:36.491Z,89.65
2023-02-27T22:41:06.449Z,89.61
2023-02-27T22:43:33.412Z,90.02
2023-02-27T22:46:00.087Z,89.54
2023-02-27T22:48:26.723Z,89.55
2023-02-27T22:51:00.384Z,89.26
2023-02-27T22:53:26.987Z,88.98
2023-02-27T22:55:56.426Z,88.62
2023-02-27T22:58:23.581Z,89.03
2023-02-27T23:00:50.165Z,88.44
2023-02-27T23:03:16.737Z,88.82
2023-02-27T23:05:46.702Z,88.53
2023-02-27T23:08:13.495Z,88.51
2023-02-27T23:10:40.810Z,88.79
2023-02-27T23:13:08.870Z,88.86
2023-02-27T23:15:35.688Z,88.64
2023-02-27T23:18:02.269Z,89.33
2023-02-27T23:20:28.827Z,89.15
2023-02-27T23:22:55.400Z,89.02
2023-02-27T23:25:23.066Z,89.04
2023-02-27T23:27:49.618Z,88.80
2023-02-27T23:30:18.078Z,88.89
2023-02-27T23:32:44.824Z,89.14
2023-02-27T23:35:11.995Z,89.18
2023-02-27T23:37:39.299Z,89.68
2023-02-27T23:40:07.579Z,90.13
2023-02-27T23:42:34.340Z,90.09
2023-02-27T23:45:00.877Z,90.53
2023-02-27T23:47:28.790Z,90.57
2023-02-27T23:49:55.367Z,91.21
2023-02-27T23:52:21.929Z,90.87
2023-02-27T23:54:48.649Z,90.67
2023-02-27T23:57:15.272Z,90.63
2023-02-27T23:59:41.778Z,90.86
